createdAt,value
2017-08-10T00:02:13.671Z,4.33
2017-08-10T00:04:41.982Z,4.20
2017-08-10T00:07:10.322Z,4.00
2017-08-10T00:09:38.657Z,3.73
2017-08-10T00:12:07.001Z,3.97
2017-08-10T00:14:35.457Z,4.77
2017-08-10T00:17:04.560Z,4.87
2017-08-10T00:19:32.851Z,4.20
2017-08-10T00:22:01.233Z,6.10
2017-08-10T00:24:29.543Z,5.30
2017-08-10T00:26:58.671Z,4.77
2017-08-10T00:29:27.013Z,6.23
2017-08-10T00:31:55.305Z,5.80
2017-08-10T00:34:23.646Z,6.10
2017-08-10T00:36:52.005Z,5.80
2017-08-10T00:39:21.109Z,5.93
2017-08-10T00:41:50.184Z,5.30
2017-08-10T00:44:18.599Z,6.10
2017-08-10T00:46:47.647Z,6.97
2017-08-10T00:49:16.001Z,7.00
2017-08-10T00:51:44.333Z,5.90
2017-08-10T00:54:12.627Z,6.30
2017-08-10T00:56:40.912Z,7.20
2017-08-10T00:59:09.244Z,8.07
2017-08-10T01:01:41.816Z,7.70
2017-08-10T01:04:10.568Z,8.20
2017-08-10T01:06:38.888Z,9.00
2017-08-10T01:09:08.813Z,10.00
2017-08-10T01:11:37.235Z,10.70
2017-08-10T01:14:05.535Z,9.60
2017-08-10T01:16:33.841Z,9.37
2017-08-10T01:19:03.141Z,10.27
2017-08-10T01:21:31.440Z,8.73
2017-08-10T01:24:02.996Z,8.93
2017-08-10T01:26:31.317Z,9.00
2017-08-10T01:28:59.639Z,9.90
2017-08-10T01:31:27.989Z,10.60
2017-08-10T01:33:56.324Z,10.07
2017-08-10T01:36:24.647Z,9.90
2017-08-10T01:38:53.090Z,12.10
2017-08-10T01:41:21.391Z,10.77
2017-08-10T01:43:49.683Z,10.83
2017-08-10T01:46:18.044Z,10.93
2017-08-10T01:48:46.393Z,10.30
2017-08-10T01:51:14.787Z,10.90
2017-08-10T01:53:43.124Z,13.30
2017-08-10T01:56:11.435Z,12.57
2017-08-10T01:58:39.755Z,10.93
2017-08-10T02:01:08.120Z,10.13
2017-08-10T02:03:36.448Z,10.40
2017-08-10T02:06:04.742Z,11.00
2017-08-10T02:08:33.068Z,14.07
2017-08-10T02:11:01.436Z,14.57
2017-08-10T02:13:29.776Z,11.97
2017-08-10T02:15:58.158Z,12.67
2017-08-10T02:18:26.701Z,11.40
2017-08-10T02:20:55.046Z,12.70
2017-08-10T02:23:23.364Z,12.50
2017-08-10T02:25:51.941Z,13.03
2017-08-10T02:28:20.240Z,13.67
2017-08-10T02:30:48.566Z,12.37
2017-08-10T02:33:16.900Z,11.80
2017-08-10T02:35:45.228Z,10.80
2017-08-10T02:38:13.693Z,10.27
2017-08-10T02:40:42.026Z,9.40
2017-08-10T02:43:10.321Z,9.53
2017-08-10T02:45:38.669Z,11.20
2017-08-10T02:48:07.771Z,12.13
2017-08-10T02:50:36.161Z,11.27
2017-08-10T02:53:04.471Z,10.97
2017-08-10T02:55:33.565Z,9.83
2017-08-10T02:58:01.955Z,10.30
2017-08-10T03:00:30.274Z,10.83
2017-08-10T03:02:58.659Z,10.47
2017-08-10T03:05:27.077Z,8.40
2017-08-10T03:07:55.431Z,7.90
2017-08-10T03:10:24.528Z,6.93
2017-08-10T03:12:53.632Z,4.23
2017-08-10T03:15:22.118Z,4.97
2017-08-10T03:17:50.511Z,4.47
2017-08-10T03:20:18.812Z,3.90
2017-08-10T03:22:47.196Z,5.20
2017-08-10T03:25:15.488Z,4.90
2017-08-10T03:27:44.588Z,5.27
2017-08-10T03:30:12.914Z,4.90
2017-08-10T03:32:41.208Z,5.10
2017-08-10T03:35:09.530Z,4.83
2017-08-10T03:37:37.824Z,3.13
2017-08-10T03:40:06.133Z,3.80
2017-08-10T03:42:34.427Z,4.30
2017-08-10T03:45:04.761Z,5.10
2017-08-10T03:47:33.158Z,5.23
2017-08-10T03:50:01.452Z,5.27
2017-08-10T03:52:31.277Z,7.20
2017-08-10T03:55:03.876Z,5.73
2017-08-10T03:57:33.094Z,6.30
2017-08-10T04:00:01.392Z,5.60
2017-08-10T04:02:29.972Z,6.40
2017-08-10T04:04:59.114Z,7.30
2017-08-10T04:07:27.524Z,6.53
2017-08-10T04:09:55.937Z,5.07
2017-08-10T04:12:24.337Z,5.83
2017-08-10T04:14:52.655Z,5.47
2017-08-10T04:17:20.948Z,6.00
2017-08-10T04:19:49.305Z,5.60
2017-08-10T04:22:17.634Z,7.03
2017-08-10T04:24:45.946Z,5.37
2017-08-10T04:27:14.281Z,6.20
2017-08-10T04:29:43.401Z,5.00
2017-08-10T04:32:11.792Z,5.50
2017-08-10T04:34:40.871Z,6.50
2017-08-10T04:37:09.265Z,5.77
2017-08-10T04:39:37.759Z,5.13
2017-08-10T04:42:06.149Z,5.87
2017-08-10T04:44:34.448Z,6.50
2017-08-10T04:47:03.662Z,5.83
2017-08-10T04:49:32.729Z,6.67
2017-08-10T04:52:01.017Z,7.37
2017-08-10T04:54:35.513Z,8.53
2017-08-10T04:57:04.352Z,9.00
2017-08-10T04:59:32.772Z,9.00
2017-08-10T05:02:01.160Z,8.07
2017-08-10T05:04:29.496Z,6.43
2017-08-10T05:06:57.808Z,6.93
2017-08-10T05:09:26.143Z,8.03
2017-08-10T05:11:54.464Z,6.70
2017-08-10T05:14:24.988Z,7.10
2017-08-10T05:16:53.293Z,7.63
2017-08-10T05:19:21.647Z,7.50
2017-08-10T05:21:49.953Z,6.37
2017-08-10T05:24:19.035Z,6.13
2017-08-10T05:26:47.429Z,6.53
2017-08-10T05:29:15.940Z,7.43
2017-08-10T05:31:45.588Z,6.80
2017-08-10T05:34:13.937Z,6.83
2017-08-10T05:36:42.285Z,7.27
2017-08-10T05:39:10.623Z,6.37
2017-08-10T05:41:40.551Z,6.60
2017-08-10T05:44:08.942Z,7.17
2017-08-10T05:46:37.259Z,8.73
2017-08-10T05:49:05.618Z,7.60
2017-08-10T05:51:33.948Z,9.50
2017-08-10T05:54:03.191Z,10.53
2017-08-10T05:56:31.518Z,10.47
2017-08-10T05:59:00.608Z,10.50
2017-08-10T06:01:28.931Z,9.80
2017-08-10T06:03:57.236Z,10.20
2017-08-10T06:06:25.573Z,9.30
2017-08-10T06:08:53.876Z,10.10
2017-08-10T06:11:23.162Z,10.07
2017-08-10T06:13:51.473Z,11.30
2017-08-10T06:16:19.781Z,9.77
2017-08-10T06:18:48.968Z,9.50
2017-08-10T06:21:17.351Z,11.00
2017-08-10T06:23:45.688Z,11.37
2017-08-10T06:26:14.026Z,10.27
2017-08-10T06:28:42.351Z,13.27
2017-08-10T06:31:10.694Z,15.30
2017-08-10T06:33:38.983Z,13.83
2017-08-10T06:36:07.308Z,13.00
2017-08-10T06:38:36.379Z,14.70
2017-08-10T06:41:04.801Z,12.20
2017-08-10T06:43:33.871Z,11.33
2017-08-10T06:46:02.176Z,10.27
2017-08-10T06:48:30.510Z,11.27
2017-08-10T06:50:58.968Z,9.83
2017-08-10T06:53:27.297Z,10.73
2017-08-10T06:55:55.652Z,10.87
2017-08-10T06:58:23.951Z,11.00
2017-08-10T07:00:53.048Z,9.00
2017-08-10T07:03:21.375Z,8.00
2017-08-10T07:05:49.672Z,8.03
2017-08-10T07:08:18.003Z,8.50
2017-08-10T07:10:46.296Z,9.90
2017-08-10T07:13:14.627Z,9.23
2017-08-10T07:15:42.971Z,11.13
2017-08-10T07:18:11.291Z,10.90
2017-08-10T07:20:39.851Z,10.40
2017-08-10T07:23:08.138Z,11.90
2017-08-10T07:25:36.467Z,9.50
2017-08-10T07:28:06.158Z,10.07
2017-08-10T07:30:34.564Z,7.73
2017-08-10T07:33:02.884Z,8.77
2017-08-10T07:35:31.224Z,8.10
2017-08-10T07:37:59.532Z,8.00
2017-08-10T07:40:28.041Z,9.30
2017-08-10T07:42:57.151Z,10.17
2017-08-10T07:45:26.244Z,8.40
2017-08-10T07:47:54.633Z,8.67
2017-08-10T07:50:22.992Z,7.90
2017-08-10T07:52:51.313Z,9.80
2017-08-10T07:55:19.653Z,8.10
2017-08-10T07:57:48.002Z,8.90
2017-08-10T08:00:16.303Z,7.93
2017-08-10T08:02:44.679Z,7.90
2017-08-10T08:05:13.135Z,9.07
2017-08-10T08:07:41.529Z,9.00
2017-08-10T08:10:09.822Z,9.47
2017-08-10T08:12:38.156Z,9.17
2017-08-10T08:15:07.356Z,9.50
2017-08-10T08:17:35.657Z,9.93
2017-08-10T08:20:04.057Z,9.10
2017-08-10T08:22:32.455Z,8.30
2017-08-10T08:25:00.744Z,9.67
2017-08-10T08:27:29.043Z,9.33
2017-08-10T08:29:57.382Z,9.60
2017-08-10T08:32:26.567Z,9.57
2017-08-10T08:34:54.883Z,7.90
2017-08-10T08:37:23.205Z,9.30
2017-08-10T08:39:51.519Z,9.97
2017-08-10T08:42:19.816Z,8.83
2017-08-10T08:44:48.131Z,8.80
2017-08-10T08:47:16.447Z,9.30
2017-08-10T08:49:44.806Z,9.83
2017-08-10T08:52:13.242Z,9.80
2017-08-10T08:54:41.609Z,10.90
2017-08-10T08:57:09.954Z,11.77
2017-08-10T08:59:38.354Z,12.40
2017-08-10T09:02:06.674Z,12.20
2017-08-10T09:04:35.116Z,12.40
2017-08-10T09:07:04.606Z,12.10
2017-08-10T09:09:32.943Z,12.40
2017-08-10T09:12:01.328Z,12.83
2017-08-10T09:14:29.647Z,13.83
2017-08-10T09:16:57.947Z,12.77
2017-08-10T09:19:26.284Z,11.90
2017-08-10T09:21:54.594Z,11.77
2017-08-10T09:24:22.929Z,13.40
2017-08-10T09:26:51.231Z,13.10
2017-08-10T09:29:19.577Z,10.57
2017-08-10T09:31:47.912Z,11.03
2017-08-10T09:34:16.242Z,11.83
2017-08-10T09:36:44.630Z,13.03
2017-08-10T09:39:12.929Z,13.30
2017-08-10T09:41:41.270Z,11.20
2017-08-10T09:44:09.564Z,11.57
2017-08-10T09:46:37.915Z,12.17
2017-08-10T09:49:06.293Z,10.33
2017-08-10T09:51:34.621Z,11.90
2017-08-10T09:54:03.613Z,12.00
2017-08-10T09:56:32.135Z,13.50
2017-08-10T09:59:00.499Z,11.50
2017-08-10T10:01:28.881Z,12.53
2017-08-10T10:03:57.970Z,11.50
2017-08-10T10:06:26.332Z,11.40
2017-08-10T10:08:54.728Z,11.27
2017-08-10T10:11:23.065Z,11.77
2017-08-10T10:13:51.441Z,11.77
2017-08-10T10:16:19.795Z,10.07
2017-08-10T10:18:48.249Z,9.87
2017-08-10T10:21:17.313Z,10.73
2017-08-10T10:23:45.714Z,10.73
2017-08-10T10:26:14.185Z,11.57
2017-08-10T10:28:42.712Z,11.30
2017-08-10T10:31:11.104Z,10.03
2017-08-10T10:33:39.446Z,9.47
2017-08-10T10:36:07.804Z,10.40
2017-08-10T10:38:36.999Z,9.70
2017-08-10T10:41:05.295Z,9.90
2017-08-10T10:43:34.395Z,9.90
2017-08-10T10:46:03.711Z,8.73
2017-08-10T10:48:32.046Z,9.60
2017-08-10T10:51:00.399Z,9.27
2017-08-10T10:53:28.780Z,10.10
2017-08-10T10:55:57.112Z,9.27
2017-08-10T10:58:25.416Z,9.47
2017-08-10T11:00:53.731Z,9.37
2017-08-10T11:03:22.038Z,9.57
2017-08-10T11:05:50.440Z,8.23
2017-08-10T11:08:19.619Z,7.97
2017-08-10T11:10:47.954Z,7.70
2017-08-10T11:13:16.297Z,7.23
2017-08-10T11:15:44.588Z,7.70
2017-08-10T11:18:12.916Z,6.97
2017-08-10T11:20:41.240Z,7.10
2017-08-10T11:23:09.567Z,8.30
2017-08-10T11:25:37.891Z,7.30
2017-08-10T11:28:06.178Z,7.20
2017-08-10T11:30:34.479Z,9.20
2017-08-10T11:33:02.851Z,7.27
2017-08-10T11:35:41.685Z,7.60
2017-08-10T11:38:09.968Z,7.60
2017-08-10T11:40:38.279Z,8.10
2017-08-10T11:43:06.596Z,8.03
2017-08-10T11:45:35.296Z,8.40
2017-08-10T11:48:03.612Z,7.70
2017-08-10T11:50:32.093Z,7.53
2017-08-10T11:53:00.435Z,8.23
2017-08-10T11:55:28.730Z,7.00
2017-08-10T11:57:57.093Z,7.77
2017-08-10T12:00:25.424Z,8.47
2017-08-10T12:02:53.816Z,7.70
2017-08-10T12:05:22.143Z,7.63
2017-08-10T12:07:50.537Z,6.90
2017-08-10T12:10:18.929Z,7.10
2017-08-10T12:12:47.293Z,6.60
2017-08-10T12:15:15.629Z,7.40
2017-08-10T12:17:44.025Z,6.73
2017-08-10T12:20:12.358Z,6.87
2017-08-10T12:22:40.716Z,6.60
2017-08-10T12:25:09.016Z,6.33
2017-08-10T12:27:37.373Z,7.20
2017-08-10T12:30:05.690Z,6.97
2017-08-10T12:32:34.168Z,6.67
2017-08-10T12:35:02.523Z,6.00
2017-08-10T12:37:30.832Z,7.30
2017-08-10T12:39:59.158Z,7.37
2017-08-10T12:42:27.482Z,8.00
2017-08-10T12:44:55.801Z,7.17
2017-08-10T12:47:24.125Z,6.53
2017-08-10T12:49:52.421Z,7.03
2017-08-10T12:52:20.716Z,7.43
2017-08-10T12:54:49.054Z,6.97
2017-08-10T12:57:17.351Z,6.50
2017-08-10T12:59:45.695Z,6.43
2017-08-10T13:02:14.033Z,7.13
2017-08-10T13:04:42.360Z,7.10
2017-08-10T13:07:10.804Z,7.77
2017-08-10T13:09:39.452Z,8.27
2017-08-10T13:12:07.780Z,8.37
2017-08-10T13:14:36.099Z,6.97
2017-08-10T13:17:05.456Z,8.33
2017-08-10T13:19:33.813Z,8.50
2017-08-10T13:22:02.138Z,8.70
2017-08-10T13:24:30.560Z,8.10
2017-08-10T13:26:58.895Z,7.50
2017-08-10T13:29:27.330Z,6.80
2017-08-10T13:31:55.777Z,7.07
2017-08-10T13:34:24.067Z,7.57
2017-08-10T13:36:52.388Z,9.00
2017-08-10T13:39:20.692Z,7.27
2017-08-10T13:41:49.078Z,7.87
2017-08-10T13:44:17.628Z,8.30
2017-08-10T13:46:46.116Z,8.30
2017-08-10T13:49:14.458Z,8.10
2017-08-10T13:51:42.740Z,8.40
2017-08-10T13:54:11.061Z,8.40
2017-08-10T13:56:39.356Z,8.80
2017-08-10T13:59:07.724Z,9.00
2017-08-10T14:01:36.017Z,8.93
2017-08-10T14:04:04.480Z,9.70
2017-08-10T14:06:32.768Z,8.90
2017-08-10T14:09:01.060Z,9.40
2017-08-10T14:11:29.986Z,10.70
2017-08-10T14:13:59.032Z,10.50
2017-08-10T14:16:27.358Z,11.30
2017-08-10T14:18:55.664Z,12.40
2017-08-10T14:21:24.004Z,12.07
2017-08-10T14:23:53.011Z,11.00
2017-08-10T14:26:21.367Z,10.53
2017-08-10T14:28:49.663Z,10.60
2017-08-10T14:31:18.757Z,9.87
2017-08-10T14:33:47.332Z,10.10
2017-08-10T14:36:15.663Z,9.30
2017-08-10T14:38:44.959Z,10.07
2017-08-10T14:41:13.289Z,11.20
2017-08-10T14:43:41.624Z,10.50
2017-08-10T14:46:10.023Z,12.77
2017-08-10T14:48:38.423Z,9.80
2017-08-10T14:51:06.768Z,8.70
2017-08-10T14:53:35.075Z,11.20
2017-08-10T14:56:03.682Z,10.17
2017-08-10T14:58:32.123Z,9.80
2017-08-10T15:01:00.450Z,12.10
2017-08-10T15:03:29.909Z,12.10
2017-08-10T15:05:58.989Z,11.67
2017-08-10T15:08:27.339Z,11.70
2017-08-10T15:10:55.672Z,11.90
2017-08-10T15:13:24.171Z,11.83
2017-08-10T15:15:52.476Z,13.40
2017-08-10T15:18:21.657Z,11.93
2017-08-10T15:20:49.963Z,12.40
2017-08-10T15:23:18.288Z,12.67
2017-08-10T15:25:47.587Z,12.40
2017-08-10T15:28:16.696Z,12.90
2017-08-10T15:30:45.764Z,11.87
2017-08-10T15:33:14.191Z,13.37
2017-08-10T15:35:42.506Z,14.50
2017-08-10T15:38:12.079Z,16.77
2017-08-10T15:40:40.411Z,16.80
2017-08-10T15:43:08.744Z,16.30
2017-08-10T15:45:37.035Z,17.97
2017-08-10T15:48:05.649Z,17.63
2017-08-10T15:50:33.960Z,19.97
2017-08-10T15:53:03.962Z,17.47
2017-08-10T15:55:32.296Z,17.60
2017-08-10T15:58:00.627Z,19.87
2017-08-10T16:00:29.855Z,20.73
2017-08-10T16:02:58.162Z,20.90
2017-08-10T16:05:26.487Z,22.43
2017-08-10T16:07:54.781Z,21.30
2017-08-10T16:10:23.121Z,19.53
2017-08-10T16:12:51.420Z,19.57
2017-08-10T16:15:19.719Z,19.60
2017-08-10T16:17:49.363Z,19.60
2017-08-10T16:20:17.671Z,20.00
2017-08-10T16:22:45.980Z,17.70
2017-08-10T16:25:15.656Z,18.60
2017-08-10T16:27:43.965Z,16.43
2017-08-10T16:30:12.266Z,13.67
2017-08-10T16:32:41.969Z,13.47
2017-08-10T16:35:10.280Z,13.13
2017-08-10T16:37:38.654Z,11.43
2017-08-10T16:40:06.988Z,14.63
2017-08-10T16:42:35.292Z,9.83
2017-08-10T16:45:03.770Z,12.33
2017-08-10T16:47:32.094Z,11.40
2017-08-10T16:50:00.784Z,13.40
2017-08-10T16:52:29.131Z,13.80
2017-08-10T16:54:57.680Z,13.50
2017-08-10T16:57:26.276Z,15.10
2017-08-10T16:59:54.791Z,14.07
2017-08-10T17:02:23.579Z,17.37
2017-08-10T17:04:51.950Z,19.23
2017-08-10T17:07:20.339Z,17.90
2017-08-10T17:09:48.640Z,17.20
2017-08-10T17:12:16.969Z,18.03
2017-08-10T17:14:45.363Z,19.30
2017-08-10T17:17:13.676Z,19.70
2017-08-10T17:19:41.972Z,17.37
2017-08-10T17:22:10.295Z,18.17
2017-08-10T17:24:38.631Z,18.83
2017-08-10T17:27:06.966Z,17.50
2017-08-10T17:29:35.684Z,18.00
2017-08-10T17:32:04.055Z,17.80
2017-08-10T17:34:33.999Z,17.90
2017-08-10T17:37:03.457Z,16.33
2017-08-10T17:39:45.077Z,16.70
2017-08-10T17:42:19.743Z,17.57
2017-08-10T17:44:48.083Z,18.60
2017-08-10T17:47:16.471Z,19.63
2017-08-10T17:49:44.819Z,19.07
2017-08-10T17:52:13.198Z,21.03
2017-08-10T17:54:41.715Z,20.80
2017-08-10T17:57:10.164Z,19.07
2017-08-10T17:59:38.683Z,20.37
2017-08-10T18:02:07.081Z,21.87
2017-08-10T18:04:35.442Z,28.13
2017-08-10T18:07:03.883Z,25.67
2017-08-10T18:09:32.175Z,25.07
2017-08-10T18:12:00.522Z,23.57
2017-08-10T18:14:28.880Z,23.53
2017-08-10T18:16:57.281Z,21.87
2017-08-10T18:19:25.813Z,22.07
2017-08-10T18:21:54.142Z,23.60
2017-08-10T18:24:23.908Z,26.87
2017-08-10T18:26:52.232Z,23.60
2017-08-10T18:29:20.544Z,26.67
2017-08-10T18:31:49.559Z,20.53
2017-08-10T18:34:17.889Z,17.40
2017-08-10T18:36:46.216Z,16.13
2017-08-10T18:39:14.570Z,16.90
2017-08-10T18:41:42.866Z,19.10
2017-08-10T18:44:11.168Z,17.80
2017-08-10T18:46:39.529Z,17.87
2017-08-10T18:49:07.835Z,16.00
2017-08-10T18:51:36.143Z,17.77
2017-08-10T18:54:04.536Z,17.00
2017-08-10T18:56:32.835Z,18.07
2017-08-10T18:59:01.185Z,17.53
2017-08-10T19:01:29.547Z,20.17
2017-08-10T19:03:57.868Z,21.10
2017-08-10T19:06:26.191Z,23.00
2017-08-10T19:08:54.516Z,21.33
2017-08-10T19:11:22.955Z,24.80
2017-08-10T19:13:51.327Z,23.67
2017-08-10T19:16:19.636Z,20.37
2017-08-10T19:18:48.199Z,22.70
2017-08-10T19:21:16.684Z,20.67
2017-08-10T19:23:45.045Z,21.30
2017-08-10T19:26:13.391Z,21.83
2017-08-10T19:28:41.691Z,23.10
2017-08-10T19:31:10.688Z,20.10
2017-08-10T19:33:39.004Z,21.97
2017-08-10T19:36:07.300Z,21.40
2017-08-10T19:38:35.629Z,26.17
2017-08-10T19:41:03.940Z,25.43
2017-08-10T19:43:32.516Z,21.70
2017-08-10T19:46:00.874Z,23.77
2017-08-10T19:48:29.229Z,24.33
2017-08-10T19:50:57.591Z,22.77
2017-08-10T19:53:25.945Z,21.43
2017-08-10T19:55:54.344Z,20.10
2017-08-10T19:58:22.661Z,20.73
2017-08-10T20:00:51.005Z,22.67
2017-08-10T20:03:19.339Z,25.60
2017-08-10T20:05:47.663Z,21.17
2017-08-10T20:08:16.014Z,23.63
2017-08-10T20:10:44.337Z,24.20
2017-08-10T20:13:12.717Z,23.60
2017-08-10T20:15:41.067Z,21.80
2017-08-10T20:18:09.460Z,23.40
2017-08-10T20:20:37.791Z,20.93
2017-08-10T20:23:06.140Z,23.57
2017-08-10T20:25:34.463Z,22.50
2017-08-10T20:28:04.191Z,25.90
2017-08-10T20:30:33.532Z,23.53
2017-08-10T20:33:01.866Z,23.97
2017-08-10T20:35:30.355Z,24.07
2017-08-10T20:37:58.686Z,24.30
2017-08-10T20:40:30.732Z,23.50
2017-08-10T20:42:59.057Z,22.60
2017-08-10T20:45:27.401Z,25.47
2017-08-10T20:47:56.076Z,26.17
2017-08-10T20:50:24.423Z,24.93
2017-08-10T20:52:52.772Z,22.67
2017-08-10T20:55:21.144Z,23.17
2017-08-10T20:57:49.488Z,22.07
2017-08-10T21:00:17.806Z,21.57
2017-08-10T21:02:46.184Z,23.87
2017-08-10T21:05:14.581Z,24.10
2017-08-10T21:07:43.954Z,25.17
2017-08-10T21:10:12.523Z,28.57
2017-08-10T21:12:40.833Z,30.70
2017-08-10T21:15:09.158Z,27.70
2017-08-10T21:17:37.456Z,25.43
2017-08-10T21:20:05.785Z,23.30
2017-08-10T21:22:34.119Z,24.30
2017-08-10T21:25:03.475Z,23.47
2017-08-10T21:27:31.848Z,23.60
2017-08-10T21:30:00.153Z,24.97
2017-08-10T21:32:28.463Z,24.77
2017-08-10T21:34:57.395Z,27.07
2017-08-10T21:37:25.715Z,27.00
2017-08-10T21:39:54.081Z,28.30
2017-08-10T21:42:22.384Z,26.40
2017-08-10T21:44:52.361Z,27.67
2017-08-10T21:47:20.720Z,28.10
2017-08-10T21:49:49.023Z,29.30
2017-08-10T21:52:17.587Z,30.57
2017-08-10T21:54:45.972Z,29.77
2017-08-10T21:57:14.271Z,30.50
2017-08-10T21:59:42.576Z,35.77
2017-08-10T22:02:11.215Z,37.30
2017-08-10T22:04:40.576Z,41.00
2017-08-10T22:07:08.883Z,37.20
2017-08-10T22:09:37.240Z,41.10
2017-08-10T22:12:05.545Z,44.00
2017-08-10T22:14:33.839Z,46.20
2017-08-10T22:17:02.780Z,50.10
2017-08-10T22:19:31.107Z,50.60
2017-08-10T22:21:59.408Z,49.13
2017-08-10T22:24:27.967Z,44.53
2017-08-10T22:26:56.328Z,46.40
2017-08-10T22:29:24.636Z,45.03
2017-08-10T22:31:53.030Z,41.50
2017-08-10T22:34:21.315Z,38.57
2017-08-10T22:36:49.673Z,47.23
2017-08-10T22:39:17.985Z,46.03
2017-08-10T22:41:46.284Z,49.90
2017-08-10T22:46:49.081Z,54.47
2017-08-10T22:49:17.541Z,48.40
2017-08-10T22:51:45.848Z,46.37
2017-08-10T22:54:14.144Z,48.37
2017-08-10T22:56:42.516Z,47.67
2017-08-10T22:59:10.822Z,50.57
2017-08-10T23:01:39.175Z,46.97
2017-08-10T23:04:07.581Z,47.83
2017-08-10T23:06:36.883Z,47.60
2017-08-10T23:09:05.192Z,49.37
2017-08-10T23:11:33.539Z,50.40
2017-08-10T23:14:01.851Z,53.07
2017-08-10T23:16:30.213Z,52.00
2017-08-10T23:18:58.540Z,48.90
2017-08-10T23:21:26.879Z,54.37
2017-08-10T23:23:55.213Z,53.67
2017-08-10T23:26:23.533Z,55.27
2017-08-10T23:28:51.882Z,53.47
2017-08-10T23:31:20.219Z,50.17
2017-08-10T23:33:49.104Z,49.07
2017-08-10T23:36:17.726Z,51.47
2017-08-10T23:38:46.070Z,51.40
2017-08-10T23:41:14.411Z,48.30
2017-08-10T23:43:42.714Z,47.30
2017-08-10T23:46:11.054Z,46.60
2017-08-10T23:48:39.397Z,45.80
2017-08-10T23:51:07.744Z,43.67
2017-08-10T23:53:36.064Z,52.20
2017-08-10T23:56:05.335Z,45.10
2017-08-10T23:58:33.684Z,44.13
